MSC Fortunate — 3FLG6 — position and weather

sailwx.info

Track history (hours):
 
Tides and Currents Weather Stations Pressure Air Temp Water Temp Dewpoint Dewpoint Depression Visibility Wind Speed Wind Dir Waves Ship Positions

MSC Fortunate

Last reported at 2015-Jan-31 17:27 UTC. Time now 2015-Feb-01 16:46 UTC.
Position N 32°53' E 034°56'.

Length 275 m; draft 10.9 m.

Type: Ship. MMSI: 356708000.

Date/timePositionNaut miles runAvg speedWind from/ knotsBaromVisibWave heightAir tempDewpointWater temp
2015-Jan-31 17:27N 32°53' E 034°56'1011.6
2015-Jan-31 16:33N 32°55' E 034°44'  
2015-Jan-29 00:31N 32°56' E 034°42'13 0.4
2015-Jan-27 18:33N 32°52' E 034°56'1010.4
2015-Jan-27 17:33N 32°54' E 034°44'1111.3
2015-Jan-27 16:33N 32°56' E 034°31'1817.6
2015-Jan-27 15:33N 32°59' E 034°10'  
2015-Jan-25 08:07N 36°25' E 014°29'1018.6
2015-Jan-25 07:33N 36°28' E 014°17'1818.4
2015-Jan-25 06:33N 36°33' E 013°55'93118.6
2015-Jan-23 04:33N 35°58' W 005°18'24316.2
2015-Jan-22 13:33N 37°48' W 009°50'3718.2
2015-Jan-22 11:32N 38°23' W 010°00'1818.4
2015-Jan-22 10:33N 38°41' W 010°05'2018.4
2015-Jan-22 09:27N 39°01' W 010°07'  
Track history (hours):
 
Tides and Currents Weather Stations Pressure Air Temp Water Temp Dewpoint Dewpoint Depression Visibility Wind Speed Wind Dir Waves Ship Positions

MSC Fortunate

Last reported at 2015-Jan-31 17:27 UTC. Time now 2015-Feb-01 16:46 UTC.
Position N 32°53' E 034°56'.

Length 275 m; draft 10.9 m.

Type: Ship. MMSI: 356708000.

Date/timePositionNaut miles runAvg speedWind from/ knotsBaromVisibWave heightAir tempDewpointWater temp
2015-Jan-31 17:27N 32°53' E 034°56'1011.6
2015-Jan-31 16:33N 32°55' E 034°44'  
2015-Jan-29 00:31N 32°56' E 034°42'13 0.4
2015-Jan-27 18:33N 32°52' E 034°56'1010.4
2015-Jan-27 17:33N 32°54' E 034°44'1111.3
2015-Jan-27 16:33N 32°56' E 034°31'1817.6
2015-Jan-27 15:33N 32°59' E 034°10'  
2015-Jan-25 08:07N 36°25' E 014°29'1018.6
2015-Jan-25 07:33N 36°28' E 014°17'1818.4
2015-Jan-25 06:33N 36°33' E 013°55'93118.6
2015-Jan-23 04:33N 35°58' W 005°18'24316.2
2015-Jan-22 13:33N 37°48' W 009°50'3718.2
2015-Jan-22 11:32N 38°23' W 010°00'1818.4
2015-Jan-22 10:33N 38°41' W 010°05'2018.4
2015-Jan-22 09:27N 39°01' W 010°07'  

Dump ship's entire track history